Terminal Aerodrome Forecast
Issued by NWS

Home | Current Version | Previous Version | Text Only | Print | Product List | Glossary On
Versions: 1 2 3 4 5 6 7 8 9 10 11 12 13 14 15 16 17 18 19
664
FTUS46 KMFR 082339
TAFLMT
TAF
KLMT 082339Z 0900/0924 24006KT P6SM VCSH SCT025 OVC040
     FM090300 21012KT P6SM BKN025 OVC035
     FM091200 20008KT 4SM -SHSNRA BR OVC015
     FM091800 23012KT P6SM -RA BKN025 OVC035=

USA.gov is the U.S. government's official web portal to all federal, state and local government web resources and services.